sensor_id;sensor_type;location;lat;lon;timestamp;temperature;humidity
51615;DHT22;37695;52.960;6.188;2023-04-03T00:01:14;2.20;99.90
51615;DHT22;37695;52.960;6.188;2023-04-03T00:03:40;2.50;99.90
51615;DHT22;37695;52.960;6.188;2023-04-03T00:06:07;2.30;99.90
51615;DHT22;37695;52.960;6.188;2023-04-03T00:08:34;2.40;99.90
51615;DHT22;37695;52.960;6.188;2023-04-03T00:11:00;2.20;99.90
51615;DHT22;37695;52.960;6.188;2023-04-03T00:13:26;2.30;99.90
51615;DHT22;37695;52.960;6.188;2023-04-03T00:15:51;2.20;99.90
51615;DHT22;37695;52.960;6.188;2023-04-03T00:18:17;2.10;99.90
51615;DHT22;37695;52.960;6.188;2023-04-03T00:20:43;2.20;99.90
51615;DHT22;37695;52.960;6.188;2023-04-03T00:23:09;2.50;99.90
51615;DHT22;37695;52.960;6.188;2023-04-03T00:25:35;2.10;99.90
51615;DHT22;37695;52.960;6.188;2023-04-03T00:28:00;2.10;99.90
51615;DHT22;37695;52.960;6.188;2023-04-03T00:30:26;2.20;99.90
51615;DHT22;37695;52.960;6.188;2023-04-03T00:32:52;2.10;99.90
51615;DHT22;37695;52.960;6.188;2023-04-03T00:35:19;2.20;99.90
51615;DHT22;37695;52.960;6.188;2023-04-03T00:37:45;2.00;99.90
51615;DHT22;37695;52.960;6.188;2023-04-03T00:40:12;2.00;99.90
51615;DHT22;37695;52.960;6.188;2023-04-03T00:42:40;1.90;99.90
51615;DHT22;37695;52.960;6.188;2023-04-03T00:47:31;2.00;99.90
51615;DHT22;37695;52.960;6.188;2023-04-03T00:49:58;1.80;99.90
51615;DHT22;37695;52.960;6.188;2023-04-03T00:52:28;1.80;99.90
51615;DHT22;37695;52.960;6.188;2023-04-03T00:54:57;1.70;99.90
51615;DHT22;37695;52.960;6.188;2023-04-03T00:57:26;1.70;99.90
51615;DHT22;37695;52.960;6.188;2023-04-03T00:59:56;1.70;99.90
51615;DHT22;37695;52.960;6.188;2023-04-03T01:02:22;1.70;99.90
51615;DHT22;37695;52.960;6.188;2023-04-03T01:04:48;1.70;99.90
51615;DHT22;37695;52.960;6.188;2023-04-03T01:07:22;1.60;99.90
51615;DHT22;37695;52.960;6.188;2023-04-03T01:09:51;1.60;99.90
51615;DHT22;37695;52.960;6.188;2023-04-03T01:14:45;1.60;99.90
51615;DHT22;37695;52.960;6.188;2023-04-03T01:17:51;1.50;99.90
51615;DHT22;37695;52.960;6.188;2023-04-03T01:23:34;1.50;99.90
51615;DHT22;37695;52.960;6.188;2023-04-03T01:26:02;1.50;99.90
51615;DHT22;37695;52.960;6.188;2023-04-03T01:28:30;1.50;99.90
51615;DHT22;37695;52.960;6.188;2023-04-03T01:33:49;1.50;99.90
51615;DHT22;37695;52.960;6.188;2023-04-03T01:36:21;1.40;99.90
51615;DHT22;37695;52.960;6.188;2023-04-03T01:38:48;1.30;99.90
51615;DHT22;37695;52.960;6.188;2023-04-03T01:41:14;1.30;99.90
51615;DHT22;37695;52.960;6.188;2023-04-03T01:43:40;1.20;99.90
51615;DHT22;37695;52.960;6.188;2023-04-03T01:46:06;1.20;99.90
51615;DHT22;37695;52.960;6.188;2023-04-03T01:48:33;1.20;99.90
51615;DHT22;37695;52.960;6.188;2023-04-03T01:50:58;1.10;99.90
51615;DHT22;37695;52.960;6.188;2023-04-03T01:53:24;1.10;99.90
51615;DHT22;37695;52.960;6.188;2023-04-03T01:55:49;1.00;99.90
51615;DHT22;37695;52.960;6.188;2023-04-03T01:58:15;1.00;99.90
51615;DHT22;37695;52.960;6.188;2023-04-03T02:00:41;1.30;99.90
51615;DHT22;37695;52.960;6.188;2023-04-03T02:03:07;1.00;99.90
51615;DHT22;37695;52.960;6.188;2023-04-03T02:05:32;0.90;99.90
51615;DHT22;37695;52.960;6.188;2023-04-03T02:07:58;0.90;99.90
51615;DHT22;37695;52.960;6.188;2023-04-03T02:10:24;0.80;99.90
51615;DHT22;37695;52.960;6.188;2023-04-03T02:12:50;0.90;99.90
51615;DHT22;37695;52.960;6.188;2023-04-03T02:15:16;0.80;99.90
51615;DHT22;37695;52.960;6.188;2023-04-03T02:17:41;0.70;99.90
51615;DHT22;37695;52.960;6.188;2023-04-03T02:20:07;0.70;99.90
51615;DHT22;37695;52.960;6.188;2023-04-03T02:22:33;0.70;99.90
51615;DHT22;37695;52.960;6.188;2023-04-03T02:24:59;0.70;99.90
51615;DHT22;37695;52.960;6.188;2023-04-03T02:27:24;0.60;99.90
51615;DHT22;37695;52.960;6.188;2023-04-03T02:29:50;0.60;99.90
51615;DHT22;37695;52.960;6.188;2023-04-03T02:32:15;0.60;99.90
51615;DHT22;37695;52.960;6.188;2023-04-03T02:34:41;0.50;99.90
51615;DHT22;37695;52.960;6.188;2023-04-03T02:37:07;0.60;99.90
51615;DHT22;37695;52.960;6.188;2023-04-03T02:39:32;0.60;99.90
51615;DHT22;37695;52.960;6.188;2023-04-03T02:41:58;0.60;99.90
51615;DHT22;37695;52.960;6.188;2023-04-03T02:44:23;0.50;99.90
51615;DHT22;37695;52.960;6.188;2023-04-03T02:46:49;0.50;99.90
51615;DHT22;37695;52.960;6.188;2023-04-03T02:49:15;0.50;99.90
51615;DHT22;37695;52.960;6.188;2023-04-03T02:51:41;0.50;99.90
51615;DHT22;37695;52.960;6.188;2023-04-03T02:54:06;0.40;99.90
51615;DHT22;37695;52.960;6.188;2023-04-03T02:56:32;0.40;99.90
51615;DHT22;37695;52.960;6.188;2023-04-03T02:58:58;0.40;99.90
51615;DHT22;37695;52.960;6.188;2023-04-03T03:01:23;0.40;99.90
51615;DHT22;37695;52.960;6.188;2023-04-03T03:03:49;0.30;99.90
51615;DHT22;37695;52.960;6.188;2023-04-03T03:06:16;0.30;99.90
51615;DHT22;37695;52.960;6.188;2023-04-03T03:08:42;0.30;99.90
51615;DHT22;37695;52.960;6.188;2023-04-03T03:11:09;0.30;99.90
51615;DHT22;37695;52.960;6.188;2023-04-03T03:13:35;0.50;99.90
51615;DHT22;37695;52.960;6.188;2023-04-03T03:16:01;0.30;99.90
51615;DHT22;37695;52.960;6.188;2023-04-03T03:18:27;0.20;99.90
51615;DHT22;37695;52.960;6.188;2023-04-03T03:20:57;0.20;99.90
51615;DHT22;37695;52.960;6.188;2023-04-03T03:23:24;0.20;99.90
51615;DHT22;37695;52.960;6.188;2023-04-03T03:25:55;0.10;99.90
51615;DHT22;37695;52.960;6.188;2023-04-03T03:28:21;0.10;99.90
51615;DHT22;37695;52.960;6.188;2023-04-03T03:30:47;0.10;99.90
51615;DHT22;37695;52.960;6.188;2023-04-03T03:33:12;0.10;99.90
51615;DHT22;37695;52.960;6.188;2023-04-03T03:35:38;0.00;99.90
51615;DHT22;37695;52.960;6.188;2023-04-03T03:38:03;0.00;99.90
51615;DHT22;37695;52.960;6.188;2023-04-03T03:40:29;0.00;99.90
51615;DHT22;37695;52.960;6.188;2023-04-03T03:42:54;-0.10;99.90
51615;DHT22;37695;52.960;6.188;2023-04-03T03:45:20;0.00;99.90
51615;DHT22;37695;52.960;6.188;2023-04-03T03:47:45;-0.10;99.90
51615;DHT22;37695;52.960;6.188;2023-04-03T03:50:11;0.00;99.90
51615;DHT22;37695;52.960;6.188;2023-04-03T03:52:37;-0.10;99.90
51615;DHT22;37695;52.960;6.188;2023-04-03T03:55:04;0.00;99.90
51615;DHT22;37695;52.960;6.188;2023-04-03T03:57:30;-0.10;99.90
51615;DHT22;37695;52.960;6.188;2023-04-03T03:59:55;-0.10;99.90
51615;DHT22;37695;52.960;6.188;2023-04-03T04:02:21;-0.20;99.90
51615;DHT22;37695;52.960;6.188;2023-04-03T04:04:48;-0.20;99.90
51615;DHT22;37695;52.960;6.188;2023-04-03T04:07:14;-0.20;99.90
51615;DHT22;37695;52.960;6.188;2023-04-03T04:09:39;0.00;99.90
51615;DHT22;37695;52.960;6.188;2023-04-03T04:12:05;-0.40;99.90
51615;DHT22;37695;52.960;6.188;2023-04-03T04:14:31;-0.40;99.90
51615;DHT22;37695;52.960;6.188;2023-04-03T04:16:56;-0.50;99.90
51615;DHT22;37695;52.960;6.188;2023-04-03T04:19:22;-0.50;99.90
51615;DHT22;37695;52.960;6.188;2023-04-03T04:21:47;-0.40;99.90
51615;DHT22;37695;52.960;6.188;2023-04-03T04:24:13;-0.40;99.90
51615;DHT22;37695;52.960;6.188;2023-04-03T04:26:39;-0.40;99.90
51615;DHT22;37695;52.960;6.188;2023-04-03T04:29:04;-0.40;99.90
51615;DHT22;37695;52.960;6.188;2023-04-03T04:31:30;-0.40;99.90
51615;DHT22;37695;52.960;6.188;2023-04-03T04:33:55;-0.50;99.90
51615;DHT22;37695;52.960;6.188;2023-04-03T04:36:21;-0.50;99.90
51615;DHT22;37695;52.960;6.188;2023-04-03T04:38:46;-0.50;99.90
51615;DHT22;37695;52.960;6.188;2023-04-03T04:41:12;-0.50;99.90
51615;DHT22;37695;52.960;6.188;2023-04-03T04:43:38;-0.50;99.90
51615;DHT22;37695;52.960;6.188;2023-04-03T04:46:06;-0.50;99.90
51615;DHT22;37695;52.960;6.188;2023-04-03T04:48:32;-0.50;99.90
51615;DHT22;37695;52.960;6.188;2023-04-03T04:50:57;-0.60;99.90
51615;DHT22;37695;52.960;6.188;2023-04-03T04:53:23;-0.60;99.90
51615;DHT22;37695;52.960;6.188;2023-04-03T04:55:48;-0.60;99.90
51615;DHT22;37695;52.960;6.188;2023-04-03T04:58:14;-0.60;99.90
51615;DHT22;37695;52.960;6.188;2023-04-03T05:00:40;-0.70;99.90
51615;DHT22;37695;52.960;6.188;2023-04-03T05:03:06;-0.70;99.90
51615;DHT22;37695;52.960;6.188;2023-04-03T05:05:31;-0.60;99.90
51615;DHT22;37695;52.960;6.188;2023-04-03T05:07:57;-0.70;99.90
51615;DHT22;37695;52.960;6.188;2023-04-03T05:10:22;-0.70;99.90
51615;DHT22;37695;52.960;6.188;2023-04-03T05:12:48;-0.70;99.90
51615;DHT22;37695;52.960;6.188;2023-04-03T05:15:13;-0.70;99.90
51615;DHT22;37695;52.960;6.188;2023-04-03T05:17:39;-0.70;99.90
51615;DHT22;37695;52.960;6.188;2023-04-03T05:20:05;0.90;99.90
51615;DHT22;37695;52.960;6.188;2023-04-03T05:22:31;-0.70;99.90
51615;DHT22;37695;52.960;6.188;2023-04-03T05:24:57;0.20;99.90
51615;DHT22;37695;52.960;6.188;2023-04-03T05:27:22;-0.70;99.90
51615;DHT22;37695;52.960;6.188;2023-04-03T05:29:53;-0.70;99.90
51615;DHT22;37695;52.960;6.188;2023-04-03T05:32:19;-0.70;99.90
51615;DHT22;37695;52.960;6.188;2023-04-03T05:34:45;-0.70;99.90
51615;DHT22;37695;52.960;6.188;2023-04-03T05:37:11;-1.80;99.90
51615;DHT22;37695;52.960;6.188;2023-04-03T05:39:37;-0.70;99.90
51615;DHT22;37695;52.960;6.188;2023-04-03T05:42:05;-0.60;99.90
51615;DHT22;37695;52.960;6.188;2023-04-03T05:44:31;-0.70;99.90
51615;DHT22;37695;52.960;6.188;2023-04-03T05:46:57;-0.60;99.90
51615;DHT22;37695;52.960;6.188;2023-04-03T05:49:22;-0.60;99.90
51615;DHT22;37695;52.960;6.188;2023-04-03T05:51:48;-0.60;99.90
51615;DHT22;37695;52.960;6.188;2023-04-03T05:54:23;-0.50;99.90
51615;DHT22;37695;52.960;6.188;2023-04-03T05:56:50;-0.50;99.90
51615;DHT22;37695;52.960;6.188;2023-04-03T05:59:17;-0.50;99.90
51615;DHT22;37695;52.960;6.188;2023-04-03T06:01:43;-0.50;99.90
51615;DHT22;37695;52.960;6.188;2023-04-03T06:04:09;-0.40;99.90
51615;DHT22;37695;52.960;6.188;2023-04-03T06:06:52;-0.30;99.90
51615;DHT22;37695;52.960;6.188;2023-04-03T06:09:21;-0.30;99.90
51615;DHT22;37695;52.960;6.188;2023-04-03T06:11:47;-0.20;99.90
51615;DHT22;37695;52.960;6.188;2023-04-03T06:14:13;-0.10;99.90
51615;DHT22;37695;52.960;6.188;2023-04-03T06:16:39;0.10;99.90
51615;DHT22;37695;52.960;6.188;2023-04-03T06:19:06;0.00;99.90
51615;DHT22;37695;52.960;6.188;2023-04-03T06:21:32;0.10;99.90
51615;DHT22;37695;52.960;6.188;2023-04-03T06:23:58;0.10;99.90
51615;DHT22;37695;52.960;6.188;2023-04-03T06:26:23;0.20;99.90
51615;DHT22;37695;52.960;6.188;2023-04-03T06:28:49;0.30;99.90
51615;DHT22;37695;52.960;6.188;2023-04-03T06:31:15;0.40;99.90
51615;DHT22;37695;52.960;6.188;2023-04-03T06:33:41;0.40;99.90
51615;DHT22;37695;52.960;6.188;2023-04-03T06:36:07;0.50;99.90
51615;DHT22;37695;52.960;6.188;2023-04-03T06:38:33;0.60;99.90
51615;DHT22;37695;52.960;6.188;2023-04-03T06:40:59;0.80;99.90
51615;DHT22;37695;52.960;6.188;2023-04-03T06:43:25;0.80;99.90
51615;DHT22;37695;52.960;6.188;2023-04-03T06:45:51;1.10;99.90
51615;DHT22;37695;52.960;6.188;2023-04-03T06:48:17;1.10;99.90
51615;DHT22;37695;52.960;6.188;2023-04-03T06:50:42;1.20;99.90
51615;DHT22;37695;52.960;6.188;2023-04-03T06:53:08;1.50;99.90
51615;DHT22;37695;52.960;6.188;2023-04-03T06:55:34;1.30;99.90
51615;DHT22;37695;52.960;6.188;2023-04-03T06:58:00;1.40;99.90
51615;DHT22;37695;52.960;6.188;2023-04-03T07:00:26;1.50;99.90
51615;DHT22;37695;52.960;6.188;2023-04-03T07:02:51;1.60;99.90
51615;DHT22;37695;52.960;6.188;2023-04-03T07:05:17;3.20;99.90
51615;DHT22;37695;52.960;6.188;2023-04-03T07:07:43;1.80;99.90
51615;DHT22;37695;52.960;6.188;2023-04-03T07:10:09;2.10;99.90
51615;DHT22;37695;52.960;6.188;2023-04-03T07:12:36;2.10;99.90
51615;DHT22;37695;52.960;6.188;2023-04-03T07:15:02;2.10;99.90
51615;DHT22;37695;52.960;6.188;2023-04-03T07:17:28;2.30;99.90
51615;DHT22;37695;52.960;6.188;2023-04-03T07:19:54;2.30;99.90
51615;DHT22;37695;52.960;6.188;2023-04-03T07:22:19;2.40;99.90
51615;DHT22;37695;52.960;6.188;2023-04-03T07:24:45;2.50;99.90
51615;DHT22;37695;52.960;6.188;2023-04-03T07:27:11;2.60;99.90
51615;DHT22;37695;52.960;6.188;2023-04-03T07:29:38;2.70;99.90
51615;DHT22;37695;52.960;6.188;2023-04-03T07:32:04;2.80;99.90
51615;DHT22;37695;52.960;6.188;2023-04-03T07:34:31;2.90;99.90
51615;DHT22;37695;52.960;6.188;2023-04-03T07:36:58;3.00;99.90
51615;DHT22;37695;52.960;6.188;2023-04-03T07:39:23;3.10;99.90
51615;DHT22;37695;52.960;6.188;2023-04-03T07:41:49;3.20;99.90
51615;DHT22;37695;52.960;6.188;2023-04-03T07:44:15;3.30;99.90
51615;DHT22;37695;52.960;6.188;2023-04-03T07:46:40;3.40;99.90
51615;DHT22;37695;52.960;6.188;2023-04-03T07:49:07;3.60;99.90
51615;DHT22;37695;52.960;6.188;2023-04-03T07:51:33;3.70;99.90
51615;DHT22;37695;52.960;6.188;2023-04-03T07:53:59;3.80;99.90
51615;DHT22;37695;52.960;6.188;2023-04-03T07:56:24;3.90;99.90
51615;DHT22;37695;52.960;6.188;2023-04-03T07:58:50;4.00;99.90
51615;DHT22;37695;52.960;6.188;2023-04-03T08:01:16;4.00;99.90
51615;DHT22;37695;52.960;6.188;2023-04-03T08:03:41;4.10;99.90
51615;DHT22;37695;52.960;6.188;2023-04-03T08:06:08;4.20;99.90
51615;DHT22;37695;52.960;6.188;2023-04-03T08:08:34;4.30;99.90
51615;DHT22;37695;52.960;6.188;2023-04-03T08:11:01;4.40;99.90
51615;DHT22;37695;52.960;6.188;2023-04-03T08:13:28;4.50;99.90
51615;DHT22;37695;52.960;6.188;2023-04-03T08:15:54;4.60;99.90
51615;DHT22;37695;52.960;6.188;2023-04-03T08:18:23;4.70;99.90
51615;DHT22;37695;52.960;6.188;2023-04-03T08:20:50;4.80;99.90
51615;DHT22;37695;52.960;6.188;2023-04-03T08:23:17;4.90;99.90
51615;DHT22;37695;52.960;6.188;2023-04-03T08:25:43;5.00;99.90
51615;DHT22;37695;52.960;6.188;2023-04-03T08:28:10;5.10;99.90
51615;DHT22;37695;52.960;6.188;2023-04-03T08:30:39;5.20;99.90
51615;DHT22;37695;52.960;6.188;2023-04-03T08:33:04;5.30;99.90
51615;DHT22;37695;52.960;6.188;2023-04-03T08:35:30;5.30;99.90
51615;DHT22;37695;52.960;6.188;2023-04-03T08:37:55;5.50;99.90
51615;DHT22;37695;52.960;6.188;2023-04-03T08:40:22;5.60;99.90
51615;DHT22;37695;52.960;6.188;2023-04-03T08:43:20;5.60;99.90
51615;DHT22;37695;52.960;6.188;2023-04-03T08:45:55;5.70;99.90
51615;DHT22;37695;52.960;6.188;2023-04-03T08:48:37;5.80;99.90
51615;DHT22;37695;52.960;6.188;2023-04-03T08:51:14;5.80;99.90
51615;DHT22;37695;52.960;6.188;2023-04-03T08:54:01;5.90;99.90
51615;DHT22;37695;52.960;6.188;2023-04-03T08:56:30;6.00;99.90
51615;DHT22;37695;52.960;6.188;2023-04-03T08:59:18;6.10;99.90
51615;DHT22;37695;52.960;6.188;2023-04-03T09:01:47;6.20;99.90
51615;DHT22;37695;52.960;6.188;2023-04-03T09:04:15;6.30;99.90
51615;DHT22;37695;52.960;6.188;2023-04-03T09:06:45;6.40;99.90
51615;DHT22;37695;52.960;6.188;2023-04-03T09:09:28;6.40;99.90
51615;DHT22;37695;52.960;6.188;2023-04-03T09:14:52;6.70;99.90
51615;DHT22;37695;52.960;6.188;2023-04-03T09:17:35;6.80;99.90
51615;DHT22;37695;52.960;6.188;2023-04-03T09:20:27;6.80;99.90
51615;DHT22;37695;52.960;6.188;2023-04-03T09:22:57;6.90;99.90
51615;DHT22;37695;52.960;6.188;2023-04-03T09:25:27;7.00;99.90
51615;DHT22;37695;52.960;6.188;2023-04-03T09:27:55;7.10;99.90
51615;DHT22;37695;52.960;6.188;2023-04-03T09:30:23;7.10;99.90
51615;DHT22;37695;52.960;6.188;2023-04-03T09:32:52;7.20;99.90
51615;DHT22;37695;52.960;6.188;2023-04-03T09:35:30;7.20;99.90
51615;DHT22;37695;52.960;6.188;2023-04-03T09:40:42;7.40;99.90
51615;DHT22;37695;52.960;6.188;2023-04-03T09:45:42;7.60;99.50
51615;DHT22;37695;52.960;6.188;2023-04-03T09:50:59;7.70;99.90
51615;DHT22;37695;52.960;6.188;2023-04-03T09:53:38;7.80;99.30
51615;DHT22;37695;52.960;6.188;2023-04-03T09:56:25;7.90;97.60
51615;DHT22;37695;52.960;6.188;2023-04-03T10:01:32;8.10;98.70
51615;DHT22;37695;52.960;6.188;2023-04-03T10:04:10;8.30;99.90
51615;DHT22;37695;52.960;6.188;2023-04-03T10:06:53;8.40;98.00
51615;DHT22;37695;52.960;6.188;2023-04-03T10:09:30;8.40;96.50
51615;DHT22;37695;52.960;6.188;2023-04-03T10:14:32;8.50;98.10
51615;DHT22;37695;52.960;6.188;2023-04-03T10:17:14;8.50;97.50
51615;DHT22;37695;52.960;6.188;2023-04-03T10:22:42;8.70;96.90
51615;DHT22;37695;52.960;6.188;2023-04-03T10:25:22;8.80;97.40
51615;DHT22;37695;52.960;6.188;2023-04-03T10:28:04;9.00;98.10
51615;DHT22;37695;52.960;6.188;2023-04-03T10:30:34;9.00;96.90
51615;DHT22;37695;52.960;6.188;2023-04-03T10:33:43;9.00;97.40
51615;DHT22;37695;52.960;6.188;2023-04-03T10:42:18;9.30;95.40
51615;DHT22;37695;52.960;6.188;2023-04-03T10:47:27;9.50;94.90
51615;DHT22;37695;52.960;6.188;2023-04-03T10:55:34;9.60;96.20
51615;DHT22;37695;52.960;6.188;2023-04-03T10:58:02;9.70;95.30
51615;DHT22;37695;52.960;6.188;2023-04-03T11:00:43;9.80;95.80
51615;DHT22;37695;52.960;6.188;2023-04-03T11:05:50;9.70;94.00
51615;DHT22;37695;52.960;6.188;2023-04-03T11:11:09;9.80;94.80
51615;DHT22;37695;52.960;6.188;2023-04-03T11:16:05;9.90;94.20
51615;DHT22;37695;52.960;6.188;2023-04-03T11:21:03;9.90;93.60
51615;DHT22;37695;52.960;6.188;2023-04-03T11:23:36;9.90;93.30
51615;DHT22;37695;52.960;6.188;2023-04-03T11:26:23;9.90;93.00
51615;DHT22;37695;52.960;6.188;2023-04-03T11:29:06;10.00;91.20
51615;DHT22;37695;52.960;6.188;2023-04-03T11:34:40;10.10;91.40
51615;DHT22;37695;52.960;6.188;2023-04-03T11:39:58;10.40;93.10
51615;DHT22;37695;52.960;6.188;2023-04-03T11:45:24;10.40;93.40
51615;DHT22;37695;52.960;6.188;2023-04-03T11:50:42;10.70;93.60
51615;DHT22;37695;52.960;6.188;2023-04-03T11:58:18;10.60;92.60
51615;DHT22;37695;52.960;6.188;2023-04-03T12:06:42;10.70;90.60
51615;DHT22;37695;52.960;6.188;2023-04-03T12:08:45;10.80;91.70
51615;DHT22;37695;52.960;6.188;2023-04-03T12:21:22;10.60;92.40
51615;DHT22;37695;52.960;6.188;2023-04-03T12:43:17;10.40;92.00
51615;DHT22;37695;52.960;6.188;2023-04-03T12:46:00;10.50;92.10
51615;DHT22;37695;52.960;6.188;2023-04-03T12:48:29;10.60;91.50
51615;DHT22;37695;52.960;6.188;2023-04-03T12:50:57;10.50;92.40
51615;DHT22;37695;52.960;6.188;2023-04-03T12:53:36;10.60;92.70
51615;DHT22;37695;52.960;6.188;2023-04-03T12:58:48;10.50;91.70
51615;DHT22;37695;52.960;6.188;2023-04-03T13:01:16;10.60;92.80
51615;DHT22;37695;52.960;6.188;2023-04-03T13:03:53;10.60;92.60
51615;DHT22;37695;52.960;6.188;2023-04-03T13:06:27;10.70;91.90
51615;DHT22;37695;52.960;6.188;2023-04-03T13:08:56;10.60;92.10
51615;DHT22;37695;52.960;6.188;2023-04-03T13:11:30;10.70;92.00
51615;DHT22;37695;52.960;6.188;2023-04-03T13:13:59;10.60;92.20
51615;DHT22;37695;52.960;6.188;2023-04-03T13:16:26;10.60;92.00
51615;DHT22;37695;52.960;6.188;2023-04-03T13:18:53;10.70;92.20
51615;DHT22;37695;52.960;6.188;2023-04-03T13:21:22;10.70;92.30
51615;DHT22;37695;52.960;6.188;2023-04-03T13:23:52;10.70;92.30
51615;DHT22;37695;52.960;6.188;2023-04-03T13:26:21;10.80;92.30
51615;DHT22;37695;52.960;6.188;2023-04-03T13:28:48;10.90;92.60
51615;DHT22;37695;52.960;6.188;2023-04-03T13:34:04;10.90;92.10
51615;DHT22;37695;52.960;6.188;2023-04-03T13:36:33;10.80;91.20
51615;DHT22;37695;52.960;6.188;2023-04-03T13:39:02;10.80;91.70
51615;DHT22;37695;52.960;6.188;2023-04-03T13:41:37;10.80;91.80
51615;DHT22;37695;52.960;6.188;2023-04-03T13:47:24;10.80;87.80
51615;DHT22;37695;52.960;6.188;2023-04-03T13:52:32;10.90;92.10
51615;DHT22;37695;52.960;6.188;2023-04-03T13:55:16;11.00;91.70
51615;DHT22;37695;52.960;6.188;2023-04-03T14:03:41;11.20;91.60
51615;DHT22;37695;52.960;6.188;2023-04-03T14:06:05;11.20;91.50
51615;DHT22;37695;52.960;6.188;2023-04-03T14:08:32;11.10;92.00
51615;DHT22;37695;52.960;6.188;2023-04-03T14:10:57;11.10;91.90
51615;DHT22;37695;52.960;6.188;2023-04-03T14:13:23;11.10;91.90
51615;DHT22;37695;52.960;6.188;2023-04-03T14:15:49;11.10;91.70
51615;DHT22;37695;52.960;6.188;2023-04-03T14:18:19;11.10;91.70
51615;DHT22;37695;52.960;6.188;2023-04-03T14:20:45;11.00;91.20
51615;DHT22;37695;52.960;6.188;2023-04-03T14:23:10;10.90;91.00
51615;DHT22;37695;52.960;6.188;2023-04-03T14:25:37;10.90;91.30
51615;DHT22;37695;52.960;6.188;2023-04-03T14:28:20;10.90;91.40
51615;DHT22;37695;52.960;6.188;2023-04-03T14:30:48;10.90;90.70
51615;DHT22;37695;52.960;6.188;2023-04-03T14:33:18;10.90;90.90
51615;DHT22;37695;52.960;6.188;2023-04-03T14:35:44;10.90;90.90
51615;DHT22;37695;52.960;6.188;2023-04-03T14:38:25;10.80;90.90
51615;DHT22;37695;52.960;6.188;2023-04-03T14:40:52;10.80;88.10
51615;DHT22;37695;52.960;6.188;2023-04-03T14:43:18;10.80;90.70
51615;DHT22;37695;52.960;6.188;2023-04-03T14:45:46;10.90;91.00
51615;DHT22;37695;52.960;6.188;2023-04-03T14:48:24;11.00;91.00
51615;DHT22;37695;52.960;6.188;2023-04-03T14:50:51;11.00;90.20
51615;DHT22;37695;52.960;6.188;2023-04-03T14:53:17;10.90;91.00
51615;DHT22;37695;52.960;6.188;2023-04-03T14:55:47;10.90;90.90
51615;DHT22;37695;52.960;6.188;2023-04-03T14:58:17;10.90;91.00
51615;DHT22;37695;52.960;6.188;2023-04-03T15:00:44;10.90;90.60
51615;DHT22;37695;52.960;6.188;2023-04-03T15:03:18;10.80;90.90
51615;DHT22;37695;52.960;6.188;2023-04-03T15:05:45;10.80;90.50
51615;DHT22;37695;52.960;6.188;2023-04-03T15:08:21;10.80;91.00
51615;DHT22;37695;52.960;6.188;2023-04-03T15:10:47;10.90;91.10
51615;DHT22;37695;52.960;6.188;2023-04-03T15:13:13;10.90;90.70
51615;DHT22;37695;52.960;6.188;2023-04-03T15:15:41;10.90;91.10
51615;DHT22;37695;52.960;6.188;2023-04-03T15:18:09;10.90;90.90
51615;DHT22;37695;52.960;6.188;2023-04-03T15:20:35;10.90;90.80
51615;DHT22;37695;52.960;6.188;2023-04-03T15:23:01;10.80;90.70
51615;DHT22;37695;52.960;6.188;2023-04-03T15:25:28;10.80;91.10
51615;DHT22;37695;52.960;6.188;2023-04-03T15:27:54;10.70;89.50
51615;DHT22;37695;52.960;6.188;2023-04-03T15:30:20;10.80;90.80
51615;DHT22;37695;52.960;6.188;2023-04-03T15:32:47;10.80;90.90
51615;DHT22;37695;52.960;6.188;2023-04-03T15:35:12;10.80;90.70
51615;DHT22;37695;52.960;6.188;2023-04-03T15:37:38;10.80;91.00
51615;DHT22;37695;52.960;6.188;2023-04-03T15:40:05;10.80;90.90
51615;DHT22;37695;52.960;6.188;2023-04-03T15:42:31;10.90;90.70
51615;DHT22;37695;52.960;6.188;2023-04-03T15:44:56;11.10;90.80
51615;DHT22;37695;52.960;6.188;2023-04-03T15:47:22;11.30;91.00
51615;DHT22;37695;52.960;6.188;2023-04-03T15:49:47;11.50;90.50
51615;DHT22;37695;52.960;6.188;2023-04-03T15:52:13;11.70;90.60
51615;DHT22;37695;52.960;6.188;2023-04-03T15:54:38;11.60;90.40
51615;DHT22;37695;52.960;6.188;2023-04-03T15:57:04;12.00;90.70
51615;DHT22;37695;52.960;6.188;2023-04-03T15:59:30;12.00;90.60
51615;DHT22;37695;52.960;6.188;2023-04-03T16:01:58;11.90;91.00
51615;DHT22;37695;52.960;6.188;2023-04-03T16:04:24;11.80;90.80
51615;DHT22;37695;52.960;6.188;2023-04-03T16:06:50;11.70;90.90
51615;DHT22;37695;52.960;6.188;2023-04-03T16:09:16;11.90;90.80
51615;DHT22;37695;52.960;6.188;2023-04-03T16:11:42;12.00;90.50
51615;DHT22;37695;52.960;6.188;2023-04-03T16:14:09;12.10;90.50
51615;DHT22;37695;52.960;6.188;2023-04-03T16:16:35;12.20;90.70
51615;DHT22;37695;52.960;6.188;2023-04-03T16:19:00;12.30;90.90
51615;DHT22;37695;52.960;6.188;2023-04-03T16:21:27;12.10;90.30
51615;DHT22;37695;52.960;6.188;2023-04-03T16:23:53;12.20;90.70
51615;DHT22;37695;52.960;6.188;2023-04-03T16:26:18;12.00;90.60
51615;DHT22;37695;52.960;6.188;2023-04-03T16:28:45;11.70;90.10
51615;DHT22;37695;52.960;6.188;2023-04-03T16:31:10;11.50;90.20
51615;DHT22;37695;52.960;6.188;2023-04-03T16:33:36;11.70;90.60
51615;DHT22;37695;52.960;6.188;2023-04-03T16:36:03;11.90;90.30
51615;DHT22;37695;52.960;6.188;2023-04-03T16:38:29;11.90;89.60
51615;DHT22;37695;52.960;6.188;2023-04-03T16:40:55;11.90;90.40
51615;DHT22;37695;52.960;6.188;2023-04-03T16:43:25;12.00;90.50
51615;DHT22;37695;52.960;6.188;2023-04-03T16:45:50;12.10;90.20
51615;DHT22;37695;52.960;6.188;2023-04-03T16:48:16;12.40;90.10
51615;DHT22;37695;52.960;6.188;2023-04-03T16:50:41;12.70;89.50
51615;DHT22;37695;52.960;6.188;2023-04-03T16:53:07;13.00;89.60
51615;DHT22;37695;52.960;6.188;2023-04-03T16:55:35;13.30;90.00
51615;DHT22;37695;52.960;6.188;2023-04-03T16:58:01;13.20;88.90
51615;DHT22;37695;52.960;6.188;2023-04-03T17:00:29;12.90;89.90
51615;DHT22;37695;52.960;6.188;2023-04-03T17:02:55;12.90;90.20
51615;DHT22;37695;52.960;6.188;2023-04-03T17:05:21;13.00;90.30
51615;DHT22;37695;52.960;6.188;2023-04-03T17:07:46;13.30;90.00
51615;DHT22;37695;52.960;6.188;2023-04-03T17:10:12;13.50;89.90
51615;DHT22;37695;52.960;6.188;2023-04-03T17:12:38;13.50;88.90
51615;DHT22;37695;52.960;6.188;2023-04-03T17:15:04;13.60;89.50
51615;DHT22;37695;52.960;6.188;2023-04-03T17:17:29;13.70;90.00
51615;DHT22;37695;52.960;6.188;2023-04-03T17:19:56;13.80;89.80
51615;DHT22;37695;52.960;6.188;2023-04-03T17:22:21;13.80;89.00
51615;DHT22;37695;52.960;6.188;2023-04-03T17:24:47;13.80;89.00
51615;DHT22;37695;52.960;6.188;2023-04-03T17:27:12;13.60;88.90
51615;DHT22;37695;52.960;6.188;2023-04-03T17:29:57;13.20;89.80
51615;DHT22;37695;52.960;6.188;2023-04-03T17:32:33;12.90;90.10
51615;DHT22;37695;52.960;6.188;2023-04-03T17:34:58;12.40;90.70
51615;DHT22;37695;52.960;6.188;2023-04-03T17:37:24;12.20;91.00
51615;DHT22;37695;52.960;6.188;2023-04-03T17:39:49;12.00;91.10
51615;DHT22;37695;52.960;6.188;2023-04-03T17:42:15;12.00;90.80
51615;DHT22;37695;52.960;6.188;2023-04-03T17:44:41;11.90;90.90
51615;DHT22;37695;52.960;6.188;2023-04-03T17:47:06;11.70;91.20
51615;DHT22;37695;52.960;6.188;2023-04-03T17:49:32;11.50;91.10